SVPA Airport Information

Runway Information
Runway 04 Length 8272 ft width 140 ft
Elevation 245 ft Threshold 0 ft Heading 30
Runway 22 Length 8272 ft Width 140 ft
Elevation 244 ft Threshold 0 ft Heading 210
Airport Frequencies
Type TWR Name PUERTO AYA Frequency 118.3 MHZ
Airport Navaids
Type VOR Name Puerto Ayacucho Frequency 112800 KHZ
Type NDB Name Puerto Ayacucho Frequency 375 KHZ
Airport Weather Information & NOTAM
ADDS - METARS form results

(2026 UTC 09 April 2020)
Data provider http://aviationweather.gov/metar/data/
 
METAR text: SVPA 092002Z AUTO 18005KT NCD 31/24 Q1010
Conditions at: SVPA (PUERTO AYACUCHO , VE) observed 2002 UTC 09 April 2020
Temperature: 31.0°C (88°F)
Dewpoint: 24.0°C (75°F) [RH = 66%]
Pressure (altimeter): 29.82 inches Hg (1010.0 mb)
Winds: from the S (180 degrees) at 6 MPH (5 knots; 2.6 m/s)
Visibility: missing
Ceiling: at least 12,000 feet AGL
Clouds: sky clear below 12,000 feet AGL
Weather: no significant weather observed at this time